Time;durP1;ratioP1;P1;durP2;ratioP2;P2;SDS_P1;SDS_P2;PMS_P1;PMS_P2;Temp;Humidity;BMP_temperature;BMP_pressure;BME280_temperature;BME280_humidity;BME280_pressure;Samples;Min_cycle;Max_cycle;Signal;HPM_P1;HPM_P2
2021/08/23 00:00:39;;;;;;;;;;;;;;;;;;5085375;28;20399;-75
2021/08/23 00:03:23;;;;;;;;;;;;;;;;;;5074825;28;19919;-74
2021/08/23 00:06:07;;;;;;;;;;;;;;;;;;5090295;28;20145;-75
2021/08/23 00:08:51;;;;;;;;;;;;;;;;;;5073351;28;20014;-75
2021/08/23 00:11:36;;;;;;;;;;;;;;;;;;5077434;28;19920;-75
2021/08/23 00:14:20;;;;;;;;;;;;;;;;;;5085277;28;19935;-75
2021/08/23 00:17:04;;;;;;;;;;;;;;;;;;5085139;28;19920;-75
2021/08/23 00:19:49;;;;;;;;;;;;;;;;;;5088528;28;19947;-74
2021/08/23 00:22:36;;;;;;;;;;;;;;;;;;5081014;28;19943;-76
2021/08/23 00:25:20;;;;;;;;;;;;;;;;;;5100385;28;19919;-75
2021/08/23 00:28:04;;;;;;;;;;;;;;;;;;5098810;28;20303;-76
2021/08/23 00:30:48;;;;;;;;;;;;;;;;;;5084032;28;19924;-76
2021/08/23 00:33:32;;;;;;;;;;;;;;;;;;5086559;28;20399;-76
2021/08/23 00:36:16;;;;;;;;;;;;;;;;;;5079929;28;19919;-76
2021/08/23 00:39:02;;;;;;;;;;;;;;;;;;5097173;28;19986;-75
2021/08/23 00:41:46;;;;;;;;;;;;;;;;;;5093995;28;19919;-76
2021/08/23 00:44:30;;;;;;;;;;;;;;;;;;5083835;28;19919;-76
2021/08/23 00:47:15;;;;;;;;;;;;;;;;;;5085167;28;19919;-75
2021/08/23 00:49:59;;;;;;;;;;;;;;;;;;5085269;28;19923;-75
2021/08/23 00:52:43;;;;;;;;;;;;;;;;;;5074537;28;21260;-74
2021/08/23 00:55:27;;;;;;;;;;;;;;;;;;5079607;28;19931;-74
2021/08/23 00:58:11;;;;;;;;;;;;;;;;;;5087604;28;19995;-76
2021/08/23 01:00:55;;;;;;;;;;;;;;;;;;5079797;28;20312;-75
2021/08/23 01:03:39;;;;;;;;;;;;;;;;;;5072962;28;19919;-75
2021/08/23 01:06:24;;;;;;;;;;;;;;;;;;5074697;28;19920;-76
2021/08/23 01:09:08;;;;;;;;;;;;;;;;;;5083698;28;19923;-75
2021/08/23 01:11:53;;;;;;;;;;;;;;;;;;5078571;28;19919;-77
2021/08/23 01:14:38;;;;;;;;;;;;;;;;;;5079564;28;19923;-75
2021/08/23 01:17:22;;;;;;;;;;;;;;;;;;5089201;28;19919;-75
2021/08/23 01:20:07;;;;;;;;;;;;;;;;;;5079712;28;19943;-74
2021/08/23 01:22:51;;;;;;;;;;;;;;;;;;5091997;28;19919;-75
2021/08/23 01:25:36;;;;;;;;;;;;;;;;;;5089601;28;19923;-76
2021/08/23 01:28:20;;;;;;;;;;;;;;;;;;5084322;28;20430;-75
2021/08/23 01:31:05;;;;;;;;;;;;;;;;;;5076823;28;19935;-76
2021/08/23 01:33:50;;;;;;;;;;;;;;;;;;5089111;28;20303;-74
2021/08/23 01:36:34;;;;;;;;;;;;;;;;;;5095842;28;20400;-76
2021/08/23 01:39:18;;;;;;;;;;;;;;;;;;5091732;28;19928;-75
2021/08/23 01:42:03;;;;;;;;;;;;;;;;;;5073144;28;19936;-75
2021/08/23 01:44:47;;;;;;;;;;;;;;;;;;5081793;28;19919;-76
2021/08/23 01:47:34;;;;;;;;;;;;;;;;;;5090205;28;19920;-75
2021/08/23 01:50:32;;;;;;;;;;;;;;;;;;5082506;28;19940;-75
2021/08/23 01:53:17;;;;;;;;;;;;;;;;;;5073518;28;19920;-76
2021/08/23 01:56:01;;;;;;;;;;;;;;;;;;5085007;28;19918;-76
2021/08/23 01:58:46;;;;;;;;;;;;;;;;;;5078908;28;19920;-76
2021/08/23 02:01:30;;;;;;;;;;;;;;;;;;5076749;28;19927;-76
2021/08/23 02:04:14;;;;;;;;;;;;;;;;;;5080137;28;19915;-76
2021/08/23 02:06:59;;;;;;;;;;;;;;;;;;5097921;28;19920;-74
2021/08/23 02:09:44;;;;;;;;;;;;;;;;;;5075470;28;19927;-73
2021/08/23 02:12:28;;;;;;;;;;;;;;;;;;5093667;28;20416;-75
2021/08/23 02:15:12;;;;;;;;;;;;;;;;;;5077837;28;19931;-75
2021/08/23 02:17:56;;;;;;;;;;;;;;;;;;5076007;28;19924;-75
2021/08/23 02:20:41;;;;;;;;;;;;;;;;;;5096367;28;19919;-75
2021/08/23 02:23:25;;;;;;;;;;;;;;;;;;5076795;28;19920;-74
2021/08/23 02:26:10;;;;;;;;;;;;;;;;;;5091098;28;19983;-75
2021/08/23 02:28:54;;;;;;;;;;;;;;;;;;5087563;28;20327;-75
2021/08/23 02:31:39;;;;;;;;;;;;;;;;;;5096778;28;19919;-75
2021/08/23 02:34:23;;;;;;;;;;;;;;;;;;5085211;28;19935;-73
2021/08/23 02:37:07;;;;;;;;;;;;;;;;;;5097706;28;19923;-72
2021/08/23 02:39:51;;;;;;;;;;;;;;;;;;5090535;28;20292;-73
2021/08/23 02:42:36;;;;;;;;;;;;;;;;;;5078467;28;19919;-73
2021/08/23 02:45:20;;;;;;;;;;;;;;;;;;5081856;28;19919;-73
2021/08/23 02:48:04;;;;;;;;;;;;;;;;;;5080949;28;19919;-75
2021/08/23 02:50:48;;;;;;;;;;;;;;;;;;5089535;28;19923;-75
2021/08/23 02:53:32;;;;;;;;;;;;;;;;;;5095343;28;19919;-75
2021/08/23 02:56:16;;;;;;;;;;;;;;;;;;5082415;28;19920;-75
2021/08/23 02:59:01;;;;;;;;;;;;;;;;;;5091474;28;19919;-75
2021/08/23 03:01:45;;;;;;;;;;;;;;;;;;5080420;28;19919;-75
2021/08/23 03:04:29;;;;;;;;;;;;;;;;;;5087379;28;19919;-75
2021/08/23 03:07:13;;;;;;;;;;;;;;;;;;5095897;28;19920;-75
2021/08/23 03:09:57;;;;;;;;;;;;;;;;;;5080746;28;19943;-75
2021/08/23 03:12:41;;;;;;;;;;;;;;;;;;5098049;28;19924;-75
2021/08/23 03:15:26;;;;;;;;;;;;;;;;;;5100617;28;19935;-74
2021/08/23 03:18:12;;;;;;;;;;;;;;;;;;5075103;28;19920;-74
2021/08/23 03:20:56;;;;;;;;;;;;;;;;;;5083905;28;19920;-74
2021/08/23 03:23:41;;;;;;;;;;;;;;;;;;5080802;28;19919;-74
2021/08/23 03:26:25;;;;;;;;;;;;;;;;;;5078045;28;19923;-74
2021/08/23 03:29:12;;;;;;;;;;;;;;;;;;5093989;28;19973;-74
2021/08/23 03:31:56;;;;;;;;;;;;;;;;;;5080229;28;19920;-74
2021/08/23 03:34:41;;;;;;;;;;;;;;;;;;5075739;28;20022;-74
2021/08/23 03:37:25;;;;;;;;;;;;;;;;;;5080908;28;19920;-75
2021/08/23 03:40:11;;;;;;;;;;;;;;;;;;5081558;28;19920;-74
2021/08/23 03:42:55;;;;;;;;;;;;;;;;;;5085287;28;19919;-74
2021/08/23 03:45:39;;;;;;;;;;;;;;;;;;5101172;28;19926;-74
2021/08/23 03:48:24;;;;;;;;;;;;;;;;;;5096435;28;19920;-75
2021/08/23 03:51:08;;;;;;;;;;;;;;;;;;5094720;28;20578;-75
2021/08/23 03:53:52;;;;;;;;;;;;;;;;;;5082675;28;19920;-75
2021/08/23 03:56:36;;;;;;;;;;;;;;;;;;5095197;28;19925;-74
2021/08/23 03:59:20;;;;;;;;;;;;;;;;;;5075906;28;21753;-74
2021/08/23 04:02:04;;;;;;;;;;;;;;;;;;5079330;28;20283;-73
2021/08/23 04:04:49;;;;;;;;;;;;;;;;;;5098765;28;19919;-74
2021/08/23 04:07:33;;;;;;;;;;;;;;;;;;5084957;28;19919;-75
2021/08/23 04:10:17;;;;;;;;;;;;;;;;;;5088890;28;19946;-74
2021/08/23 04:13:01;;;;;;;;;;;;;;;;;;5083730;28;19919;-74
2021/08/23 04:15:46;;;;;;;;;;;;;;;;;;5080725;28;19939;-74
2021/08/23 04:18:30;;;;;;;;;;;;;;;;;;5080189;28;19920;-73
2021/08/23 04:21:14;;;;;;;;;;;;;;;;;;5080544;28;20276;-71
2021/08/23 04:23:59;;;;;;;;;;;;;;;;;;5080421;28;19919;-75
2021/08/23 04:26:43;;;;;;;;;;;;;;;;;;5088242;28;19924;-76
2021/08/23 04:29:27;;;;;;;;;;;;;;;;;;5078483;28;20287;-75
2021/08/23 04:32:11;;;;;;;;;;;;;;;;;;5079864;28;19927;-76
2021/08/23 04:34:57;;;;;;;;;;;;;;;;;;5079255;28;19919;-76
2021/08/23 04:37:41;;;;;;;;;;;;;;;;;;5073397;28;20284;-76
2021/08/23 04:40:25;;;;;;;;;;;;;;;;;;5080073;28;22062;-76
2021/08/23 04:43:09;;;;;;;;;;;;;;;;;;5079743;28;20390;-75
2021/08/23 04:45:54;;;;;;;;;;;;;;;;;;5083985;28;19919;-75
2021/08/23 04:48:38;;;;;;;;;;;;;;;;;;5087996;28;20323;-75
2021/08/23 04:51:22;;;;;;;;;;;;;;;;;;5085276;28;19923;-77
2021/08/23 04:54:07;;;;;;;;;;;;;;;;;;5090246;28;19923;-76
2021/08/23 04:56:51;;;;;;;;;;;;;;;;;;5078383;28;19919;-75
2021/08/23 04:59:35;;;;;;;;;;;;;;;;;;5084918;28;19919;-76
2021/08/23 05:02:20;;;;;;;;;;;;;;;;;;5080308;28;20395;-76
2021/08/23 05:05:04;;;;;;;;;;;;;;;;;;5087528;28;19920;-76
2021/08/23 05:07:48;;;;;;;;;;;;;;;;;;5079067;28;19931;-76
2021/08/23 05:10:32;;;;;;;;;;;;;;;;;;5074291;28;19924;-76
2021/08/23 05:13:16;;;;;;;;;;;;;;;;;;5078408;28;20308;-74
2021/08/23 05:16:00;;;;;;;;;;;;;;;;;;5078800;28;19920;-76
2021/08/23 05:18:44;;;;;;;;;;;;;;;;;;5082179;28;19919;-76
2021/08/23 05:21:29;;;;;;;;;;;;;;;;;;5081801;28;19919;-76
2021/08/23 05:24:13;;;;;;;;;;;;;;;;;;5093662;28;20067;-76
2021/08/23 05:26:58;;;;;;;;;;;;;;;;;;5084873;28;19931;-76
2021/08/23 05:29:43;;;;;;;;;;;;;;;;;;5081520;28;20395;-76
2021/08/23 05:32:27;;;;;;;;;;;;;;;;;;5075812;28;20307;-76
2021/08/23 05:35:12;;;;;;;;;;;;;;;;;;5078702;28;20292;-77
2021/08/23 05:37:56;;;;;;;;;;;;;;;;;;5080779;28;20280;-77
2021/08/23 05:40:40;;;;;;;;;;;;;;;;;;5080114;28;19919;-77
2021/08/23 05:43:25;;;;;;;;;;;;;;;;;;5074167;28;20403;-77
2021/08/23 05:46:10;;;;;;;;;;;;;;;;;;5079849;28;19920;-77
2021/08/23 05:48:55;;;;;;;;;;;;;;;;;;5079465;28;19920;-76
2021/08/23 05:51:39;;;;;;;;;;;;;;;;;;5078456;28;19923;-76
2021/08/23 05:54:23;;;;;;;;;;;;;;;;;;5078711;28;20284;-76
2021/08/23 05:57:07;;;;;;;;;;;;;;;;;;5078666;28;20403;-75
2021/08/23 05:59:51;;;;;;;;;;;;;;;;;;5078808;28;19920;-76
2021/08/23 06:02:35;;;;;;;;;;;;;;;;;;5075393;28;19927;-75
2021/08/23 06:05:21;;;;;;;;;;;;;;;;;;5078761;28;19935;-75
2021/08/23 06:08:06;;;;;;;;;;;;;;;;;;5078678;28;19936;-75
2021/08/23 06:10:51;;;;;;;;;;;;;;;;;;5078587;28;20287;-76
2021/08/23 06:13:35;;;;;;;;;;;;;;;;;;5072583;28;20395;-76
2021/08/23 06:16:19;;;;;;;;;;;;;;;;;;5078613;28;19922;-76
2021/08/23 06:19:04;;;;;;;;;;;;;;;;;;5078545;28;19919;-75
2021/08/23 06:21:48;;;;;;;;;;;;;;;;;;5077873;28;20391;-75
2021/08/23 06:24:34;;;;;;;;;;;;;;;;;;5075754;28;19920;-74
2021/08/23 06:27:18;;;;;;;;;;;;;;;;;;5073168;28;19928;-76
2021/08/23 06:30:04;;;;;;;;;;;;;;;;;;5071777;28;19924;-75
2021/08/23 06:32:48;;;;;;;;;;;;;;;;;;5074460;28;19923;-75
2021/08/23 06:35:32;;;;;;;;;;;;;;;;;;5074568;28;19935;-72
2021/08/23 06:38:17;;;;;;;;;;;;;;;;;;5079546;28;19927;-72
2021/08/23 06:41:01;;;;;;;;;;;;;;;;;;5099477;28;19918;-71
2021/08/23 06:43:45;;;;;;;;;;;;;;;;;;5083268;28;19927;-71
2021/08/23 06:46:29;;;;;;;;;;;;;;;;;;5081385;28;20398;-71
2021/08/23 06:49:14;;;;;;;;;;;;;;;;;;5096994;28;19920;-74
2021/08/23 06:51:58;;;;;;;;;;;;;;;;;;5076996;28;19924;-74
2021/08/23 06:54:42;;;;;;;;;;;;;;;;;;5076921;28;19920;-74
2021/08/23 06:57:26;;;;;;;;;;;;;;;;;;5089809;28;20390;-74
2021/08/23 07:00:11;;;;;;;;;;;;;;;;;;5115285;28;19919;-74
2021/08/23 07:02:56;;;;;;;;;;;;;;;;;;5118071;28;19921;-74
2021/08/23 07:05:40;;;;;;;;;;;;;;;;;;5115382;28;19919;-74
2021/08/23 07:08:24;;;;;;;;;;;;;;;;;;5119531;28;19919;-74
2021/08/23 07:11:10;;;;;;;;;;;;;;;;;;5117410;28;19923;-74
2021/08/23 07:13:55;;;;;;;;;;;;;;;;;;5115457;28;20295;-74
2021/08/23 07:16:39;;;;;;;;;;;;;;;;;;5119234;28;19919;-74
2021/08/23 07:19:24;;;;;;;;;;;;;;;;;;5110992;28;20375;-74
2021/08/23 07:22:15;;;;;;;;;;;;;;;;;;5094179;28;19923;-75
2021/08/23 07:24:59;;;;;;;;;;;;;;;;;;5097940;28;19919;-75
2021/08/23 07:27:43;;;;;;;;;;;;;;;;;;5078201;28;19931;-75
2021/08/23 07:30:27;;;;;;;;;;;;;;;;;;5079884;28;19923;-74
2021/08/23 07:33:11;;;;;;;;;;;;;;;;;;5096337;28;19919;-74
2021/08/23 07:35:56;;;;;;;;;;;;;;;;;;5078230;28;19920;-74
2021/08/23 07:38:40;;;;;;;;;;;;;;;;;;5082327;28;19935;-73
2021/08/23 07:41:24;;;;;;;;;;;;;;;;;;5098683;28;19935;-74
2021/08/23 07:44:08;;;;;;;;;;;;;;;;;;5097294;28;20315;-74
2021/08/23 07:46:53;;;;;;;;;;;;;;;;;;5094610;28;19919;-74
2021/08/23 07:49:37;;;;;;;;;;;;;;;;;;5097584;28;20387;-73
2021/08/23 07:52:21;;;;;;;;;;;;;;;;;;5101836;28;19919;-74
2021/08/23 07:55:07;;;;;;;;;;;;;;;;;;5096349;28;19919;-74
2021/08/23 07:57:53;;;;;;;;;;;;;;;;;;5111827;28;19919;-74
2021/08/23 08:00:37;;;;;;;;;;;;;;;;;;5111192;28;19918;-74
2021/08/23 08:03:23;;;;;;;;;;;;;;;;;;5097431;28;19918;-74
2021/08/23 08:06:08;;;;;;;;;;;;;;;;;;5109344;28;19934;-74
2021/08/23 08:08:52;;;;;;;;;;;;;;;;;;5101485;28;19920;-74
2021/08/23 08:11:36;;;;;;;;;;;;;;;;;;5085574;28;19923;-73
2021/08/23 08:14:21;;;;;;;;;;;;;;;;;;5107019;28;19922;-73
2021/08/23 08:17:05;;;;;;;;;;;;;;;;;;5100891;28;19920;-74
2021/08/23 08:19:49;;;;;;;;;;;;;;;;;;5108615;28;19919;-74
2021/08/23 08:22:33;;;;;;;;;;;;;;;;;;5106707;28;20306;-74
2021/08/23 08:25:18;;;;;;;;;;;;;;;;;;5101249;28;19927;-74
2021/08/23 08:28:03;;;;;;;;;;;;;;;;;;5107000;28;20283;-73
2021/08/23 08:30:47;;;;;;;;;;;;;;;;;;5109291;28;19925;-75
2021/08/23 08:33:32;;;;;;;;;;;;;;;;;;5083208;28;19919;-75
2021/08/23 08:36:16;;;;;;;;;;;;;;;;;;5102647;28;19919;-74
2021/08/23 08:39:00;;;;;;;;;;;;;;;;;;5093918;28;19919;-74
2021/08/23 08:41:44;;;;;;;;;;;;;;;;;;5095151;28;20390;-75
2021/08/23 08:44:28;;;;;;;;;;;;;;;;;;5104536;28;19945;-74
2021/08/23 08:47:12;;;;;;;;;;;;;;;;;;5114225;28;19934;-74
2021/08/23 08:49:57;;;;;;;;;;;;;;;;;;5106779;28;19923;-74
2021/08/23 08:52:41;;;;;;;;;;;;;;;;;;5075777;28;20288;-74
2021/08/23 08:55:25;;;;;;;;;;;;;;;;;;5075589;28;19920;-74
2021/08/23 08:58:09;;;;;;;;;;;;;;;;;;5085482;28;20392;-74
2021/08/23 09:00:53;;;;;;;;;;;;;;;;;;5077246;28;19935;-74
2021/08/23 09:03:38;;;;;;;;;;;;;;;;;;5073071;28;19919;-74
2021/08/23 09:06:22;;;;;;;;;;;;;;;;;;5073969;28;19920;-74
2021/08/23 09:09:06;;;;;;;;;;;;;;;;;;5077887;28;20398;-74
2021/08/23 09:11:50;;;;;;;;;;;;;;;;;;5075706;28;19923;-74
2021/08/23 09:14:34;;;;;;;;;;;;;;;;;;5074087;28;19919;-74
2021/08/23 09:17:18;;;;;;;;;;;;;;;;;;5072412;28;19939;-75
2021/08/23 09:20:03;;;;;;;;;;;;;;;;;;5076148;28;19920;-75
2021/08/23 09:22:48;;;;;;;;;;;;;;;;;;5074628;28;19923;-74
2021/08/23 09:25:33;;;;;;;;;;;;;;;;;;5072203;28;20391;-74
2021/08/23 09:28:18;;;;;;;;;;;;;;;;;;5087403;28;19931;-74
2021/08/23 09:31:03;;;;;;;;;;;;;;;;;;5081766;28;19924;-74
2021/08/23 09:33:47;;;;;;;;;;;;;;;;;;5072684;28;19928;-75
2021/08/23 09:36:31;;;;;;;;;;;;;;;;;;5092245;28;19919;-74
2021/08/23 09:39:16;;;;;;;;;;;;;;;;;;5094981;28;20391;-74
2021/08/23 09:42:01;;;;;;;;;;;;;;;;;;5093055;28;19919;-70
2021/08/23 09:44:45;;;;;;;;;;;;;;;;;;5097275;28;19935;-70
2021/08/23 09:47:29;;;;;;;;;;;;;;;;;;5095316;28;19920;-71
2021/08/23 09:50:15;;;;;;;;;;;;;;;;;;5098841;28;19923;-70
2021/08/23 09:52:59;;;;;;;;;;;;;;;;;;5094498;28;19919;-72
2021/08/23 09:55:43;;;;;;;;;;;;;;;;;;5098856;28;19920;-71
2021/08/23 09:58:28;;;;;;;;;;;;;;;;;;5096706;28;19919;-71
2021/08/23 10:01:12;;;;;;;;;;;;;;;;;;5095836;28;20283;-70
2021/08/23 10:03:56;;;;;;;;;;;;;;;;;;5097654;28;19919;-70
2021/08/23 10:06:40;;;;;;;;;;;;;;;;;;5091039;28;19919;-70
2021/08/23 10:09:24;;;;;;;;;;;;;;;;;;5089173;28;19939;-71
2021/08/23 10:12:08;;;;;;;;;;;;;;;;;;5093747;28;19927;-70
2021/08/23 10:14:52;;;;;;;;;;;;;;;;;;5096449;28;19919;-71
2021/08/23 10:17:37;;;;;;;;;;;;;;;;;;5088231;28;19935;-70
2021/08/23 10:20:22;;;;;;;;;;;;;;;;;;5092966;28;19919;-71
2021/08/23 10:23:06;;;;;;;;;;;;;;;;;;5093824;28;19919;-71
2021/08/23 10:25:50;;;;;;;;;;;;;;;;;;5076827;28;19927;-71
2021/08/23 10:28:35;;;;;;;;;;;;;;;;;;5092908;28;19924;-70
2021/08/23 10:31:19;;;;;;;;;;;;;;;;;;5097848;28;20291;-74
2021/08/23 10:34:03;;;;;;;;;;;;;;;;;;5090555;28;19926;-70
2021/08/23 10:36:48;;;;;;;;;;;;;;;;;;5093862;28;19919;-72
2021/08/23 10:39:35;;;;;;;;;;;;;;;;;;5089526;28;19920;-76
2021/08/23 10:42:21;;;;;;;;;;;;;;;;;;5079596;28;19924;-76
2021/08/23 10:45:05;;;;;;;;;;;;;;;;;;5082666;28;19920;-77
2021/08/23 10:47:49;;;;;;;;;;;;;;;;;;5098062;28;20480;-76
2021/08/23 10:50:36;;;;;;;;;;;;;;;;;;5077560;28;19931;-77
2021/08/23 10:53:21;;;;;;;;;;;;;;;;;;5077160;28;20284;-77
2021/08/23 10:56:05;;;;;;;;;;;;;;;;;;5082741;28;19919;-77
2021/08/23 10:58:49;;;;;;;;;;;;;;;;;;5082523;28;20406;-76
2021/08/23 11:01:34;;;;;;;;;;;;;;;;;;5082104;28;19920;-76
2021/08/23 11:04:18;;;;;;;;;;;;;;;;;;5093202;28;19919;-77
2021/08/23 11:07:02;;;;;;;;;;;;;;;;;;5102704;28;19919;-76
2021/08/23 11:09:46;;;;;;;;;;;;;;;;;;5102349;28;19919;-77
2021/08/23 11:12:30;;;;;;;;;;;;;;;;;;5099288;28;19919;-77
2021/08/23 11:15:16;;;;;;;;;;;;;;;;;;5097794;28;19919;-76
2021/08/23 11:18:02;;;;;;;;;;;;;;;;;;5102218;28;19920;-76
2021/08/23 11:20:46;;;;;;;;;;;;;;;;;;5102243;28;19919;-76
2021/08/23 11:23:30;;;;;;;;;;;;;;;;;;5096640;28;19923;-76
2021/08/23 11:26:15;;;;;;;;;;;;;;;;;;5100136;28;19923;-77
2021/08/23 11:28:59;;;;;;;;;;;;;;;;;;5101886;28;19919;-76
2021/08/23 11:31:44;;;;;;;;;;;;;;;;;;5100966;28;19923;-77
2021/08/23 11:34:28;;;;;;;;;;;;;;;;;;5101682;28;19919;-76
2021/08/23 11:37:12;;;;;;;;;;;;;;;;;;5101535;28;19920;-77
2021/08/23 11:39:58;;;;;;;;;;;;;;;;;;5101537;28;20382;-76
2021/08/23 11:42:43;;;;;;;;;;;;;;;;;;5098457;28;19919;-77
2021/08/23 11:45:28;;;;;;;;;;;;;;;;;;5100514;28;20100;-77
2021/08/23 11:48:12;;;;;;;;;;;;;;;;;;5098633;28;19927;-77
2021/08/23 11:50:58;;;;;;;;;;;;;;;;;;5101304;28;19938;-76
2021/08/23 11:53:43;;;;;;;;;;;;;;;;;;5094904;28;19919;-76
2021/08/23 11:56:27;;;;;;;;;;;;;;;;;;5099233;28;19919;-76
2021/08/23 11:59:11;;;;;;;;;;;;;;;;;;5101220;28;19919;-76
2021/08/23 12:01:55;;;;;;;;;;;;;;;;;;5100031;28;19919;-77
2021/08/23 12:04:39;;;;;;;;;;;;;;;;;;5101004;28;19923;-76
2021/08/23 12:07:23;;;;;;;;;;;;;;;;;;5101056;28;19978;-76
2021/08/23 12:10:07;;;;;;;;;;;;;;;;;;5100611;28;19919;-76
2021/08/23 12:12:51;;;;;;;;;;;;;;;;;;5096793;28;19919;-76
2021/08/23 12:15:36;;;;;;;;;;;;;;;;;;5100763;28;20279;-76
2021/08/23 12:18:20;;;;;;;;;;;;;;;;;;5100672;28;19919;-76
2021/08/23 12:21:04;;;;;;;;;;;;;;;;;;5100623;28;19919;-76
2021/08/23 12:23:48;;;;;;;;;;;;;;;;;;5093747;28;19923;-76
2021/08/23 12:26:32;;;;;;;;;;;;;;;;;;5097530;28;19934;-75
2021/08/23 12:29:17;;;;;;;;;;;;;;;;;;5100130;28;19920;-77
2021/08/23 12:32:01;;;;;;;;;;;;;;;;;;5093199;28;20292;-74
2021/08/23 12:34:47;;;;;;;;;;;;;;;;;;5094611;28;19920;-74
2021/08/23 12:37:31;;;;;;;;;;;;;;;;;;5100032;28;19919;-75
2021/08/23 12:40:15;;;;;;;;;;;;;;;;;;5099855;28;20407;-74
2021/08/23 12:43:00;;;;;;;;;;;;;;;;;;5095309;28;19919;-74
2021/08/23 12:45:44;;;;;;;;;;;;;;;;;;5094199;28;19923;-74
2021/08/23 12:48:29;;;;;;;;;;;;;;;;;;5088965;28;19986;-74
2021/08/23 12:51:16;;;;;;;;;;;;;;;;;;5080924;28;19939;-75
2021/08/23 12:54:00;;;;;;;;;;;;;;;;;;5083193;28;19923;-74
2021/08/23 12:56:44;;;;;;;;;;;;;;;;;;5093557;28;19919;-74
2021/08/23 12:59:29;;;;;;;;;;;;;;;;;;5092460;28;19923;-75
2021/08/23 13:02:13;;;;;;;;;;;;;;;;;;5095401;28;19918;-74
2021/08/23 13:04:58;;;;;;;;;;;;;;;;;;5096152;28;19919;-74
2021/08/23 13:07:42;;;;;;;;;;;;;;;;;;5098833;28;20402;-74
2021/08/23 13:10:26;;;;;;;;;;;;;;;;;;5090581;28;20493;-74
2021/08/23 13:13:10;;;;;;;;;;;;;;;;;;5089603;28;19935;-74
2021/08/23 13:15:55;;;;;;;;;;;;;;;;;;5095238;28;19919;-74
2021/08/23 13:18:39;;;;;;;;;;;;;;;;;;5093459;28;20919;-73
2021/08/23 13:21:23;;;;;;;;;;;;;;;;;;5092007;28;20419;-74
2021/08/23 13:24:08;;;;;;;;;;;;;;;;;;5096868;28;19919;-75
2021/08/23 13:26:52;;;;;;;;;;;;;;;;;;5093149;28;19923;-75
2021/08/23 13:29:37;;;;;;;;;;;;;;;;;;5097738;28;19920;-75
2021/08/23 13:32:21;;;;;;;;;;;;;;;;;;5095218;28;19923;-75
2021/08/23 13:35:05;;;;;;;;;;;;;;;;;;5088510;28;20426;-75
2021/08/23 13:37:49;;;;;;;;;;;;;;;;;;5090184;28;19919;-75
2021/08/23 13:40:35;;;;;;;;;;;;;;;;;;5091577;28;19919;-75
2021/08/23 13:43:19;;;;;;;;;;;;;;;;;;5092759;28;19949;-75
2021/08/23 13:46:03;;;;;;;;;;;;;;;;;;5097890;28;19923;-75
2021/08/23 13:48:47;;;;;;;;;;;;;;;;;;5098701;28;20395;-75
2021/08/23 13:51:32;;;;;;;;;;;;;;;;;;5086946;28;19938;-75
2021/08/23 13:54:16;;;;;;;;;;;;;;;;;;5092839;28;20378;-75
2021/08/23 13:57:00;;;;;;;;;;;;;;;;;;5098192;28;19943;-74
2021/08/23 13:59:44;;;;;;;;;;;;;;;;;;5092343;28;19935;-75
2021/08/23 14:02:28;;;;;;;;;;;;;;;;;;5094674;28;20382;-74
2021/08/23 14:05:12;;;;;;;;;;;;;;;;;;5100884;28;19935;-74
2021/08/23 14:07:57;;;;;;;;;;;;;;;;;;5101922;28;19919;-74
2021/08/23 14:10:41;;;;;;;;;;;;;;;;;;5096507;28;19927;-74
2021/08/23 14:13:26;;;;;;;;;;;;;;;;;;5096937;28;20299;-74
2021/08/23 14:16:09;;;;;;;;;;;;;;;;;;5098941;28;19919;-74
2021/08/23 14:18:56;;;;;;;;;;;;;;;;;;5097597;28;20101;-74
2021/08/23 14:21:41;;;;;;;;;;;;;;;;;;5100126;28;20288;-74
2021/08/23 14:24:25;;;;;;;;;;;;;;;;;;5102451;28;19920;-74
2021/08/23 14:27:09;;;;;;;;;;;;;;;;;;5095145;28;19927;-75
2021/08/23 14:29:53;;;;;;;;;;;;;;;;;;5099944;28;19920;-75
2021/08/23 14:32:38;;;;;;;;;;;;;;;;;;5095097;28;19923;-75
2021/08/23 14:35:23;;;;;;;;;;;;;;;;;;5098024;28;19919;-75
2021/08/23 14:38:06;;;;;;;;;;;;;;;;;;5096783;28;19919;-75
2021/08/23 14:40:51;;;;;;;;;;;;;;;;;;5095052;28;19920;-75
2021/08/23 14:43:36;;;;;;;;;;;;;;;;;;5092325;28;19920;-75
2021/08/23 14:46:21;;;;;;;;;;;;;;;;;;5095197;28;19927;-75
2021/08/23 14:49:06;;;;;;;;;;;;;;;;;;5095827;28;20398;-75
2021/08/23 14:51:51;;;;;;;;;;;;;;;;;;5095814;28;19924;-76
2021/08/23 14:54:35;;;;;;;;;;;;;;;;;;5094438;28;19919;-75
2021/08/23 14:57:20;;;;;;;;;;;;;;;;;;5096443;28;20418;-76
2021/08/23 15:00:04;;;;;;;;;;;;;;;;;;5098906;28;19918;-75
2021/08/23 15:02:48;;;;;;;;;;;;;;;;;;5095803;28;19934;-76
2021/08/23 15:05:33;;;;;;;;;;;;;;;;;;5097993;28;19920;-75
2021/08/23 15:08:17;;;;;;;;;;;;;;;;;;5090377;28;20637;-76
2021/08/23 15:11:01;;;;;;;;;;;;;;;;;;5093403;28;19923;-76
2021/08/23 15:13:45;;;;;;;;;;;;;;;;;;5094178;28;19919;-75
2021/08/23 15:16:31;;;;;;;;;;;;;;;;;;5093228;28;19919;-75
2021/08/23 15:19:17;;;;;;;;;;;;;;;;;;5095393;28;19919;-76
2021/08/23 15:22:02;;;;;;;;;;;;;;;;;;5098704;28;19922;-76
2021/08/23 15:24:46;;;;;;;;;;;;;;;;;;5097564;28;19919;-76
2021/08/23 15:27:30;;;;;;;;;;;;;;;;;;5094065;28;20291;-76
2021/08/23 15:30:14;;;;;;;;;;;;;;;;;;5090180;28;20288;-76
2021/08/23 15:33:04;;;;;;;;;;;;;;;;;;5095163;28;19919;-76
2021/08/23 15:35:48;;;;;;;;;;;;;;;;;;5095901;28;19935;-75
2021/08/23 15:38:32;;;;;;;;;;;;;;;;;;5093895;28;19919;-75
2021/08/23 15:41:16;;;;;;;;;;;;;;;;;;5095410;28;19935;-75
2021/08/23 15:44:01;;;;;;;;;;;;;;;;;;5097591;28;19919;-76
2021/08/23 15:46:46;;;;;;;;;;;;;;;;;;5093200;28;19920;-76
2021/08/23 15:49:30;;;;;;;;;;;;;;;;;;5095926;28;19919;-76
2021/08/23 15:52:14;;;;;;;;;;;;;;;;;;5080796;28;19923;-75
2021/08/23 15:54:59;;;;;;;;;;;;;;;;;;5093039;28;19930;-76
2021/08/23 15:57:44;;;;;;;;;;;;;;;;;;5097769;28;19919;-75
2021/08/23 16:00:28;;;;;;;;;;;;;;;;;;5087585;28;20292;-75
2021/08/23 16:03:15;;;;;;;;;;;;;;;;;;5094402;28;19919;-76
2021/08/23 16:05:59;;;;;;;;;;;;;;;;;;5099509;28;19953;-75
2021/08/23 16:08:44;;;;;;;;;;;;;;;;;;5096386;28;19919;-77
2021/08/23 16:11:28;;;;;;;;;;;;;;;;;;5091782;28;19931;-75
2021/08/23 16:14:13;;;;;;;;;;;;;;;;;;5097828;28;20383;-77
2021/08/23 16:16:57;;;;;;;;;;;;;;;;;;5095888;28;19935;-75
2021/08/23 16:19:41;;;;;;;;;;;;;;;;;;5096275;28;19927;-78
2021/08/23 16:22:25;;;;;;;;;;;;;;;;;;5094706;28;20299;-78
2021/08/23 16:25:10;;;;;;;;;;;;;;;;;;5096405;28;19919;-78
2021/08/23 16:27:54;;;;;;;;;;;;;;;;;;5095472;28;19931;-78
2021/08/23 16:30:39;;;;;;;;;;;;;;;;;;5099340;28;19931;-78
2021/08/23 16:33:23;;;;;;;;;;;;;;;;;;5092502;28;20303;-78
2021/08/23 16:36:07;;;;;;;;;;;;;;;;;;5096063;28;19919;-78
2021/08/23 16:38:51;;;;;;;;;;;;;;;;;;5092579;28;19919;-78
2021/08/23 16:41:35;;;;;;;;;;;;;;;;;;5097778;28;19982;-78
2021/08/23 16:44:19;;;;;;;;;;;;;;;;;;5096408;28;19923;-78
2021/08/23 16:47:04;;;;;;;;;;;;;;;;;;5097523;28;19919;-78
2021/08/23 16:49:48;;;;;;;;;;;;;;;;;;5096698;28;20275;-75
2021/08/23 16:52:33;;;;;;;;;;;;;;;;;;5095762;28;19923;-78
2021/08/23 16:55:17;;;;;;;;;;;;;;;;;;5093903;28;19935;-78
2021/08/23 16:58:01;;;;;;;;;;;;;;;;;;5096677;28;19919;-77
2021/08/23 17:00:45;;;;;;;;;;;;;;;;;;5096036;28;19919;-78
2021/08/23 17:03:30;;;;;;;;;;;;;;;;;;5091700;28;20422;-78
2021/08/23 17:06:14;;;;;;;;;;;;;;;;;;5096654;28;19935;-78
2021/08/23 17:08:58;;;;;;;;;;;;;;;;;;5095204;28;19919;-77
2021/08/23 17:11:42;;;;;;;;;;;;;;;;;;5093328;28;19931;-78
2021/08/23 17:14:26;;;;;;;;;;;;;;;;;;5092723;28;19920;-78
2021/08/23 17:17:11;;;;;;;;;;;;;;;;;;5091446;28;19926;-77
2021/08/23 17:19:56;;;;;;;;;;;;;;;;;;5093264;28;20398;-78
2021/08/23 17:22:40;;;;;;;;;;;;;;;;;;5094801;28;19919;-78
2021/08/23 17:25:24;;;;;;;;;;;;;;;;;;5096653;28;19919;-77
2021/08/23 17:28:08;;;;;;;;;;;;;;;;;;5092553;28;19923;-78
2021/08/23 17:30:54;;;;;;;;;;;;;;;;;;5090914;28;20395;-78
2021/08/23 17:33:38;;;;;;;;;;;;;;;;;;5092016;28;19919;-77
2021/08/23 17:36:22;;;;;;;;;;;;;;;;;;5093829;28;19927;-77
2021/08/23 17:39:06;;;;;;;;;;;;;;;;;;5093100;28;19979;-77
2021/08/23 17:41:52;;;;;;;;;;;;;;;;;;5094651;28;19919;-77
2021/08/23 17:44:36;;;;;;;;;;;;;;;;;;5093688;28;19919;-77
2021/08/23 17:47:21;;;;;;;;;;;;;;;;;;5092610;28;20342;-77
2021/08/23 17:50:05;;;;;;;;;;;;;;;;;;5094337;28;19920;-77
2021/08/23 17:52:49;;;;;;;;;;;;;;;;;;5092055;28;19923;-77
2021/08/23 17:55:33;;;;;;;;;;;;;;;;;;5091763;28;20291;-77
2021/08/23 17:58:17;;;;;;;;;;;;;;;;;;5090394;28;19924;-77
2021/08/23 18:01:01;;;;;;;;;;;;;;;;;;5094460;28;19919;-77
2021/08/23 18:03:45;;;;;;;;;;;;;;;;;;5091698;28;20017;-77
2021/08/23 18:06:29;;;;;;;;;;;;;;;;;;5089790;28;19927;-77
2021/08/23 18:09:14;;;;;;;;;;;;;;;;;;5094137;28;20410;-77
2021/08/23 18:11:58;;;;;;;;;;;;;;;;;;5093064;28;19925;-77
2021/08/23 18:14:43;;;;;;;;;;;;;;;;;;5087005;28;19927;-77
2021/08/23 18:17:27;;;;;;;;;;;;;;;;;;5092195;28;19919;-77
2021/08/23 18:20:11;;;;;;;;;;;;;;;;;;5088554;28;19919;-77
2021/08/23 18:22:55;;;;;;;;;;;;;;;;;;5087759;28;19919;-77
2021/08/23 18:25:39;;;;;;;;;;;;;;;;;;5092479;28;19923;-77
2021/08/23 18:28:23;;;;;;;;;;;;;;;;;;5091036;28;19923;-77
2021/08/23 18:31:09;;;;;;;;;;;;;;;;;;5089917;28;19994;-77
2021/08/23 18:33:53;;;;;;;;;;;;;;;;;;5091355;28;19920;-77
2021/08/23 18:36:37;;;;;;;;;;;;;;;;;;5093359;28;19919;-77
2021/08/23 18:39:21;;;;;;;;;;;;;;;;;;5089056;28;20410;-77
2021/08/23 18:42:06;;;;;;;;;;;;;;;;;;5095714;28;19919;-77